DAL37 EGLL-KATL
Flight info
| Callsign | DAL37 |
|---|---|
| Flight time | N/A |
| Altitude | 36000 |
| Route | ULTIB T420 TNT UL28 PENIL M144 BAGSO DCT DOGAL/M081F360 DCT 54N020W 53N030W 51N040W 49N050W DCT JOOPY/N0466F360 N328A TUSKY DCT BOS DCT BAF Q448 PTW J48 MOL DCT FLASK OZZZI1 |
| Aircraft | B764/H-SDE3FGHIM3RWXY/LB1 |
Departure
| Time | 2026-05-07 22:53 |
|---|---|
| Airport | London Heathrow Airport (EGLL) |
Arrival
| Time | N/A |
|---|---|
| Airport | Hartsfield Jackson Atlanta International Airport (KATL) |
| Time | Latitude | Longitude | Altitude | Speed | Heading |
|---|---|---|---|---|---|
| 2026-05-07 21:38 | 51.47289 | -0.46133 | 92 ft | 0 kts | 235° |
| 2026-05-07 22:34 | 51.47291 | -0.46130 | 92 ft | 3 kts | 234° |
| 2026-05-07 22:34 | 51.47308 | -0.46100 | 95 ft | 4 kts | 209° |
| 2026-05-07 22:35 | 51.47333 | -0.46087 | 92 ft | 4 kts | 178° |
| 2026-05-07 22:35 | 51.47357 | -0.46093 | 92 ft | 4 kts | 165° |
| 2026-05-07 22:35 | 51.47371 | -0.46099 | 94 ft | 4 kts | 170° |
| 2026-05-07 22:35 | 51.47392 | -0.46098 | 92 ft | 4 kts | 235° |
| 2026-05-07 22:36 | 51.47403 | -0.46063 | 92 ft | 4 kts | 271° |
| 2026-05-07 22:36 | 51.47394 | -0.46039 | 93 ft | 4 kts | 352° |
| 2026-05-07 22:36 | 51.47368 | -0.46038 | 92 ft | 4 kts | 1° |
| 2026-05-07 22:36 | 51.47341 | -0.46035 | 91 ft | 4 kts | 339° |
| 2026-05-07 22:37 | 51.47334 | -0.46031 | 91 ft | 0 kts | 325° |
| 2026-05-07 22:41 | 51.47336 | -0.46033 | 92 ft | 1 kts | 325° |
| 2026-05-07 22:41 | 51.47347 | -0.46045 | 95 ft | 3 kts | 325° |
| 2026-05-07 22:41 | 51.47368 | -0.46068 | 97 ft | 4 kts | 325° |
| 2026-05-07 22:41 | 51.47398 | -0.46101 | 96 ft | 6 kts | 325° |
| 2026-05-07 22:42 | 51.47437 | -0.46144 | 96 ft | 8 kts | 325° |
| 2026-05-07 22:42 | 51.47484 | -0.46197 | 95 ft | 9 kts | 321° |
| 2026-05-07 22:42 | 51.47515 | -0.46283 | 95 ft | 10 kts | 289° |
| 2026-05-07 22:42 | 51.47518 | -0.46390 | 93 ft | 10 kts | 269° |
| 2026-05-07 22:43 | 51.47517 | -0.46505 | 92 ft | 10 kts | 269° |
| 2026-05-07 22:43 | 51.47516 | -0.46618 | 92 ft | 0 kts | 269° |
| 2026-05-07 22:43 | 51.47516 | -0.46620 | 92 ft | 0 kts | 269° |
| 2026-05-07 22:43 | 51.47516 | -0.46636 | 92 ft | 3 kts | 269° |
| 2026-05-07 22:44 | 51.47514 | -0.46697 | 93 ft | 8 kts | 263° |
| 2026-05-07 22:44 | 51.47482 | -0.46756 | 96 ft | 7 kts | 199° |
| 2026-05-07 22:44 | 51.47422 | -0.46745 | 93 ft | 11 kts | 170° |
| 2026-05-07 22:44 | 51.47334 | -0.46722 | 92 ft | 15 kts | 175° |
| 2026-05-07 22:45 | 51.47233 | -0.46724 | 92 ft | 13 kts | 182° |
| 2026-05-07 22:45 | 51.47142 | -0.46728 | 92 ft | 14 kts | 181° |
| 2026-05-07 22:45 | 51.47051 | -0.46718 | 92 ft | 13 kts | 162° |
| 2026-05-07 22:45 | 51.46964 | -0.46633 | 96 ft | 16 kts | 146° |
| 2026-05-07 22:46 | 51.46883 | -0.46546 | 95 ft | 10 kts | 146° |
| 2026-05-07 22:46 | 51.46816 | -0.46473 | 95 ft | 13 kts | 146° |
| 2026-05-07 22:46 | 51.46775 | -0.46455 | 96 ft | 2 kts | 199° |
| 2026-05-07 22:46 | 51.46759 | -0.46488 | 94 ft | 5 kts | 236° |
| 2026-05-07 22:47 | 51.46755 | -0.46508 | 96 ft | 3 kts | 251° |
| 2026-05-07 22:47 | 51.46748 | -0.46582 | 96 ft | 9 kts | 265° |
| 2026-05-07 22:47 | 51.46747 | -0.46685 | 96 ft | 10 kts | 270° |
| 2026-05-07 22:47 | 51.46748 | -0.46814 | 96 ft | 13 kts | 270° |
| 2026-05-07 22:48 | 51.46748 | -0.46971 | 96 ft | 16 kts | 270° |
| 2026-05-07 22:48 | 51.46747 | -0.47144 | 96 ft | 14 kts | 269° |
| 2026-05-07 22:48 | 51.46745 | -0.47316 | 96 ft | 16 kts | 268° |
| 2026-05-07 22:48 | 51.46745 | -0.47510 | 96 ft | 19 kts | 270° |
| 2026-05-07 22:49 | 51.46745 | -0.47690 | 96 ft | 17 kts | 270° |
| 2026-05-07 22:49 | 51.46744 | -0.47887 | 92 ft | 19 kts | 269° |
| 2026-05-07 22:49 | 51.46742 | -0.48088 | 92 ft | 13 kts | 269° |
| 2026-05-07 22:49 | 51.46741 | -0.48249 | 92 ft | 16 kts | 269° |
| 2026-05-07 22:50 | 51.46740 | -0.48393 | 92 ft | 9 kts | 268° |
| 2026-05-07 22:50 | 51.46722 | -0.48447 | 95 ft | 5 kts | 217° |
| 2026-05-07 22:50 | 51.46682 | -0.48474 | 95 ft | 7 kts | 205° |
| 2026-05-07 22:50 | 51.46653 | -0.48535 | 97 ft | 8 kts | 251° |
| 2026-05-07 22:51 | 51.46650 | -0.48634 | 96 ft | 9 kts | 274° |
| 2026-05-07 22:51 | 51.46633 | -0.48729 | 95 ft | 10 kts | 230° |
| 2026-05-07 22:51 | 51.46566 | -0.48781 | 94 ft | 12 kts | 191° |
| 2026-05-07 22:51 | 51.46504 | -0.48756 | 95 ft | 8 kts | 143° |
| 2026-05-07 22:52 | 51.46480 | -0.48673 | 95 ft | 9 kts | 99° |
| 2026-05-07 22:52 | 51.46478 | -0.48590 | 94 ft | 0 kts | 91° |
| 2026-05-07 22:52 | 51.46477 | -0.48473 | 94 ft | 39 kts | 91° |
| 2026-05-07 22:52 | 51.46480 | -0.47583 | 92 ft | 120 kts | 89° |
| 2026-05-07 22:53 | 51.46481 | -0.45798 | 97 ft | 197 kts | 92° |
| 2026-05-07 22:53 | 51.46478 | -0.43312 | 579 ft | 246 kts | 90° |
| 2026-05-07 22:53 | 51.46479 | -0.40647 | 1535 ft | 235 kts | 89° |
| 2026-05-07 22:53 | 51.46733 | -0.38065 | 2521 ft | 238 kts | 70° |
| 2026-05-07 22:54 | 51.47654 | -0.35832 | 3567 ft | 245 kts | 39° |
| 2026-05-07 22:54 | 51.49206 | -0.34634 | 4720 ft | 250 kts | 17° |
| 2026-05-07 22:54 | 51.50708 | -0.33234 | 5750 ft | 257 kts | 47° |
| 2026-05-07 22:54 | 51.51755 | -0.30888 | 6903 ft | 260 kts | 58° |
| 2026-05-07 22:55 | 51.52635 | -0.28327 | 7946 ft | 266 kts | 65° |
| 2026-05-07 22:55 | 51.53317 | -0.25501 | 8991 ft | 271 kts | 62° |
| 2026-05-07 22:55 | 51.54533 | -0.23222 | 9562 ft | 278 kts | 33° |
| 2026-05-07 22:55 | 51.56316 | -0.22067 | 9812 ft | 277 kts | 6° |
| 2026-05-07 22:56 | 51.58200 | -0.22319 | 9934 ft | 273 kts | 345° |
| 2026-05-07 22:56 | 51.60041 | -0.23156 | 9961 ft | 272 kts | 341° |
| 2026-05-07 22:56 | 51.61838 | -0.24169 | 9950 ft | 272 kts | 338° |
| 2026-05-07 22:56 | 51.63543 | -0.25458 | 9889 ft | 271 kts | 328° |
| 2026-05-07 22:57 | 51.65127 | -0.27039 | 9929 ft | 269 kts | 328° |
| 2026-05-07 22:57 | 51.66739 | -0.28619 | 10000 ft | 270 kts | 328° |
| 2026-05-07 22:57 | 51.68378 | -0.30183 | 10055 ft | 285 kts | 329° |
| 2026-05-07 22:57 | 51.69558 | -0.31308 | 10159 ft | 301 kts | 329° |
| 2026-05-07 22:58 | 51.71413 | -0.33095 | 10728 ft | 319 kts | 328° |
| 2026-05-07 22:58 | 51.73355 | -0.34974 | 11612 ft | 334 kts | 328° |
| 2026-05-07 22:58 | 51.75407 | -0.36958 | 12550 ft | 350 kts | 328° |
| 2026-05-07 22:58 | 51.77528 | -0.39006 | 13516 ft | 363 kts | 328° |
| 2026-05-07 22:59 | 51.79733 | -0.41136 | 14635 ft | 370 kts | 328° |
| 2026-05-07 22:59 | 51.81970 | -0.43305 | 15705 ft | 377 kts | 328° |
| 2026-05-07 22:59 | 51.84214 | -0.45485 | 16791 ft | 383 kts | 328° |
| 2026-05-07 22:59 | 51.86533 | -0.47736 | 17876 ft | 390 kts | 328° |
| 2026-05-07 23:00 | 51.88899 | -0.50037 | 18878 ft | 396 kts | 328° |
| 2026-05-07 23:00 | 51.91272 | -0.52348 | 19819 ft | 402 kts | 328° |
| 2026-05-07 23:00 | 51.93679 | -0.54693 | 20764 ft | 407 kts | 328° |
| 2026-05-07 23:00 | 51.96135 | -0.57082 | 21716 ft | 413 kts | 328° |
| 2026-05-07 23:01 | 51.98602 | -0.59494 | 22666 ft | 419 kts | 327° |
| 2026-05-07 23:01 | 52.01122 | -0.61978 | 23593 ft | 425 kts | 328° |
| 2026-05-07 23:01 | 52.03648 | -0.64451 | 24375 ft | 430 kts | 328° |
| 2026-05-07 23:01 | 52.06228 | -0.66977 | 25170 ft | 435 kts | 328° |
| 2026-05-07 23:02 | 52.08845 | -0.69550 | 25960 ft | 437 kts | 328° |
| 2026-05-07 23:02 | 52.11413 | -0.72076 | 26382 ft | 434 kts | 328° |
| 2026-05-07 23:02 | 52.14054 | -0.74677 | 26605 ft | 442 kts | 328° |
| 2026-05-07 23:02 | 52.16698 | -0.77298 | 26714 ft | 446 kts | 328° |
| 2026-05-07 23:03 | 52.19344 | -0.79904 | 26753 ft | 446 kts | 328° |
| 2026-05-07 23:03 | 52.21985 | -0.82505 | 26765 ft | 444 kts | 328° |
| 2026-05-07 23:03 | 52.24639 | -0.85140 | 26771 ft | 443 kts | 328° |
| 2026-05-07 23:03 | 52.27259 | -0.87741 | 26791 ft | 443 kts | 328° |
| 2026-05-07 23:04 | 52.29903 | -0.90372 | 26794 ft | 444 kts | 328° |
| 2026-05-07 23:04 | 52.32532 | -0.92987 | 26795 ft | 444 kts | 328° |
| 2026-05-07 23:04 | 52.35190 | -0.95635 | 26800 ft | 443 kts | 328° |
| 2026-05-07 23:04 | 52.37829 | -0.98269 | 26783 ft | 443 kts | 328° |
| 2026-05-07 23:05 | 52.40439 | -1.00878 | 26782 ft | 443 kts | 328° |
| 2026-05-07 23:05 | 52.43103 | -1.03544 | 26761 ft | 444 kts | 328° |
| 2026-05-07 23:05 | 52.45706 | -1.06152 | 26752 ft | 443 kts | 328° |
| 2026-05-07 23:05 | 52.48357 | -1.08815 | 26765 ft | 443 kts | 328° |
| 2026-05-07 23:06 | 52.50970 | -1.11439 | 26758 ft | 443 kts | 328° |
| 2026-05-07 23:06 | 52.53616 | -1.14102 | 26749 ft | 443 kts | 328° |
| 2026-05-07 23:06 | 52.56229 | -1.16737 | 26745 ft | 443 kts | 328° |
| 2026-05-07 23:06 | 52.58866 | -1.19398 | 26721 ft | 443 kts | 328° |
| 2026-05-07 23:07 | 52.61480 | -1.22039 | 26718 ft | 444 kts | 328° |
| 2026-05-07 23:07 | 52.64116 | -1.24709 | 26716 ft | 444 kts | 328° |
| 2026-05-07 23:07 | 52.66763 | -1.27391 | 26720 ft | 443 kts | 328° |
| 2026-05-07 23:07 | 52.69380 | -1.30048 | 26730 ft | 443 kts | 328° |
| 2026-05-07 23:08 | 52.71987 | -1.32700 | 26730 ft | 443 kts | 328° |
| 2026-05-07 23:08 | 52.74616 | -1.35379 | 26786 ft | 443 kts | 328° |
| 2026-05-07 23:08 | 52.77266 | -1.38076 | 26785 ft | 443 kts | 328° |
| 2026-05-07 23:08 | 52.79874 | -1.40748 | 26785 ft | 443 kts | 328° |
| 2026-05-07 23:09 | 52.82489 | -1.43444 | 26784 ft | 443 kts | 328° |
| 2026-05-07 23:09 | 52.85089 | -1.46139 | 26773 ft | 443 kts | 328° |
| 2026-05-07 23:09 | 52.87731 | -1.48893 | 26786 ft | 443 kts | 328° |
| 2026-05-07 23:09 | 52.90338 | -1.51628 | 26784 ft | 443 kts | 327° |
| 2026-05-07 23:10 | 52.92946 | -1.54379 | 26777 ft | 443 kts | 327° |
| 2026-05-07 23:10 | 52.95534 | -1.57125 | 26783 ft | 443 kts | 327° |
| 2026-05-07 23:10 | 52.98096 | -1.59859 | 26783 ft | 443 kts | 327° |
| 2026-05-07 23:10 | 53.00700 | -1.62654 | 26782 ft | 443 kts | 327° |
| 2026-05-07 23:11 | 53.03259 | -1.65455 | 26782 ft | 443 kts | 324° |
| 2026-05-07 23:11 | 53.05751 | -1.68522 | 26780 ft | 443 kts | 323° |
| 2026-05-07 23:11 | 53.08249 | -1.71580 | 26758 ft | 443 kts | 324° |
| 2026-05-07 23:11 | 53.10744 | -1.74505 | 26758 ft | 443 kts | 325° |
| 2026-05-07 23:12 | 53.13316 | -1.77385 | 26759 ft | 442 kts | 327° |
| 2026-05-07 23:12 | 53.16037 | -1.79761 | 26782 ft | 442 kts | 334° |
| 2026-05-07 23:12 | 53.18790 | -1.82021 | 26773 ft | 443 kts | 333° |
| 2026-05-07 23:12 | 53.21505 | -1.84491 | 26742 ft | 443 kts | 324° |
| 2026-05-07 23:13 | 53.23736 | -1.88035 | 26780 ft | 442 kts | 306° |
| 2026-05-07 23:13 | 53.25286 | -1.92414 | 26796 ft | 443 kts | 293° |
| 2026-05-07 23:13 | 53.26404 | -1.97255 | 26805 ft | 445 kts | 291° |
| 2026-05-07 23:13 | 53.27535 | -2.02044 | 26783 ft | 445 kts | 292° |
| 2026-05-07 23:14 | 53.28661 | -2.06866 | 26768 ft | 444 kts | 291° |
| 2026-05-07 23:14 | 53.29788 | -2.11717 | 26762 ft | 443 kts | 291° |
| 2026-05-07 23:14 | 53.30904 | -2.16501 | 26759 ft | 444 kts | 291° |
| 2026-05-07 23:14 | 53.32021 | -2.21315 | 26758 ft | 444 kts | 291° |
| 2026-05-07 23:15 | 53.33141 | -2.26150 | 26759 ft | 444 kts | 291° |
| 2026-05-07 23:15 | 53.34254 | -2.30962 | 26748 ft | 444 kts | 291° |
| 2026-05-07 23:15 | 53.35375 | -2.35819 | 26757 ft | 443 kts | 291° |
| 2026-05-07 23:15 | 53.36479 | -2.40618 | 26760 ft | 444 kts | 291° |
| 2026-05-07 23:16 | 53.37592 | -2.45466 | 26761 ft | 444 kts | 291° |
| 2026-05-07 23:16 | 53.38694 | -2.50277 | 26757 ft | 444 kts | 291° |
| 2026-05-07 23:16 | 53.39793 | -2.55086 | 26757 ft | 443 kts | 291° |
| 2026-05-07 23:16 | 53.40890 | -2.59894 | 26746 ft | 443 kts | 291° |
| 2026-05-07 23:17 | 53.41988 | -2.64722 | 26758 ft | 443 kts | 291° |
| 2026-05-07 23:17 | 53.43097 | -2.69605 | 26739 ft | 443 kts | 291° |
| 2026-05-07 23:17 | 53.44197 | -2.74457 | 26738 ft | 443 kts | 291° |
| 2026-05-07 23:17 | 53.45284 | -2.79274 | 26752 ft | 443 kts | 291° |
| 2026-05-07 23:18 | 53.46372 | -2.84093 | 26755 ft | 443 kts | 291° |
| 2026-05-07 23:18 | 53.47495 | -2.88900 | 26741 ft | 442 kts | 291° |
| 2026-05-07 23:18 | 53.48464 | -2.93842 | 26756 ft | 442 kts | 287° |
| 2026-05-07 23:18 | 53.49346 | -2.98770 | 26754 ft | 443 kts | 288° |
| 2026-05-07 23:19 | 53.50271 | -3.03733 | 26755 ft | 442 kts | 287° |
| 2026-05-07 23:19 | 53.51175 | -3.08663 | 26738 ft | 442 kts | 287° |
| 2026-05-07 23:19 | 53.52079 | -3.13603 | 26739 ft | 442 kts | 287° |
| 2026-05-07 23:19 | 53.52971 | -3.18488 | 26751 ft | 441 kts | 287° |
| 2026-05-07 23:20 | 53.53880 | -3.23472 | 26800 ft | 441 kts | 287° |
| 2026-05-07 23:20 | 53.54766 | -3.28340 | 27159 ft | 430 kts | 287° |
| 2026-05-07 23:20 | 53.55621 | -3.33053 | 28000 ft | 416 kts | 287° |
| 2026-05-07 23:20 | 53.56452 | -3.37650 | 29062 ft | 404 kts | 287° |
| 2026-05-07 23:21 | 53.57266 | -3.42151 | 30280 ft | 394 kts | 287° |
| 2026-05-07 23:21 | 53.58055 | -3.46536 | 31277 ft | 386 kts | 287° |
| 2026-05-07 23:21 | 53.58818 | -3.50793 | 32123 ft | 382 kts | 288° |
| 2026-05-07 23:21 | 53.59594 | -3.55122 | 32612 ft | 387 kts | 288° |
| 2026-05-07 23:22 | 53.60371 | -3.59469 | 33121 ft | 390 kts | 287° |
| 2026-05-07 23:22 | 53.61056 | -3.63911 | 33615 ft | 394 kts | 284° |
| 2026-05-07 23:22 | 53.61620 | -3.68445 | 34090 ft | 398 kts | 281° |
| 2026-05-07 23:22 | 53.61898 | -3.73090 | 34481 ft | 402 kts | 274° |
| 2026-05-07 23:23 | 53.62067 | -3.77877 | 34904 ft | 405 kts | 275° |
| 2026-05-07 23:23 | 53.62281 | -3.82617 | 35309 ft | 408 kts | 275° |
| 2026-05-07 23:23 | 53.62465 | -3.87349 | 35689 ft | 409 kts | 274° |
| 2026-05-07 23:23 | 53.62645 | -3.92167 | 35863 ft | 409 kts | 274° |
| 2026-05-07 23:24 | 53.62851 | -3.96996 | 35936 ft | 412 kts | 274° |
| 2026-05-07 23:24 | 53.63249 | -4.06680 | 36009 ft | 417 kts | 274° |
| 2026-05-07 23:25 | 53.63614 | -4.16369 | 36008 ft | 414 kts | 274° |
| 2026-05-07 23:25 | 53.63976 | -4.26050 | 36013 ft | 411 kts | 274° |
| 2026-05-07 23:26 | 53.64340 | -4.35618 | 36016 ft | 412 kts | 274° |
| 2026-05-07 23:26 | 53.64700 | -4.45284 | 36019 ft | 413 kts | 274° |
| 2026-05-07 23:27 | 53.65212 | -4.59792 | 36017 ft | 411 kts | 274° |
| 2026-05-07 23:27 | 53.65487 | -4.67820 | 36015 ft | 410 kts | 274° |
| 2026-05-07 23:28 | 53.65800 | -4.77411 | 36025 ft | 406 kts | 270° |
| 2026-05-07 23:28 | 53.66128 | -4.86893 | 36010 ft | 405 kts | 270° |
| 2026-05-07 23:29 | 53.66427 | -4.96347 | 36010 ft | 406 kts | 270° |
| 2026-05-07 23:29 | 53.66729 | -5.05892 | 36007 ft | 406 kts | 270° |
| 2026-05-07 23:30 | 53.67021 | -5.15378 | 35997 ft | 405 kts | 270° |
| 2026-05-07 23:30 | 53.67298 | -5.24876 | 35999 ft | 404 kts | 270° |
| 2026-05-07 23:31 | 53.67568 | -5.34310 | 36003 ft | 405 kts | 270° |
| 2026-05-07 23:31 | 53.67832 | -5.43791 | 35993 ft | 405 kts | 270° |
| 2026-05-07 23:32 | 53.68241 | -5.53324 | 35999 ft | 405 kts | 276° |
| 2026-05-07 23:32 | 53.69052 | -5.62673 | 36000 ft | 405 kts | 275° |
| 2026-05-07 23:33 | 53.69830 | -5.72136 | 36001 ft | 406 kts | 275° |
| 2026-05-07 23:33 | 53.70595 | -5.81547 | 35979 ft | 405 kts | 275° |
| 2026-05-07 23:34 | 53.71355 | -5.90986 | 35989 ft | 403 kts | 275° |
| 2026-05-07 23:34 | 53.72106 | -6.00407 | 35991 ft | 404 kts | 275° |
| 2026-05-07 23:35 | 53.72846 | -6.09785 | 35986 ft | 404 kts | 275° |
| 2026-05-07 23:35 | 53.73582 | -6.19213 | 35982 ft | 403 kts | 275° |
| 2026-05-07 23:36 | 53.74310 | -6.28626 | 35992 ft | 402 kts | 274° |
| 2026-05-07 23:36 | 53.75023 | -6.37959 | 35989 ft | 402 kts | 274° |
| 2026-05-07 23:37 | 53.75731 | -6.47312 | 35995 ft | 403 kts | 274° |
| 2026-05-07 23:37 | 53.76437 | -6.56739 | 35983 ft | 402 kts | 274° |
| 2026-05-07 23:38 | 53.77129 | -6.66092 | 35984 ft | 400 kts | 274° |
| 2026-05-07 23:38 | 53.77811 | -6.75413 | 35984 ft | 401 kts | 274° |
| 2026-05-07 23:39 | 53.78492 | -6.84805 | 35985 ft | 401 kts | 274° |
| 2026-05-07 23:39 | 53.79161 | -6.94147 | 35978 ft | 400 kts | 274° |
| 2026-05-07 23:40 | 53.79824 | -7.03493 | 35981 ft | 399 kts | 274° |
| 2026-05-07 23:40 | 53.80475 | -7.12791 | 35982 ft | 399 kts | 274° |
| 2026-05-07 23:41 | 53.81122 | -7.22153 | 35983 ft | 400 kts | 273° |
| 2026-05-07 23:41 | 53.81763 | -7.31511 | 35986 ft | 400 kts | 273° |
| 2026-05-07 23:42 | 53.82393 | -7.40825 | 35985 ft | 398 kts | 273° |
| 2026-05-07 23:42 | 53.83017 | -7.50163 | 35990 ft | 399 kts | 273° |
| 2026-05-07 23:43 | 53.83638 | -7.59545 | 36002 ft | 399 kts | 273° |
| 2026-05-07 23:43 | 53.84251 | -7.68980 | 36015 ft | 416 kts | 273° |
| 2026-05-07 23:44 | 53.84575 | -7.73974 | 36024 ft | 430 kts | 273° |
| 2026-05-07 23:44 | 53.84904 | -7.79086 | 36021 ft | 445 kts | 273° |
| 2026-05-07 23:44 | 53.85242 | -7.84388 | 36016 ft | 460 kts | 273° |
| 2026-05-07 23:44 | 53.85587 | -7.89827 | 36010 ft | 475 kts | 273° |
| 2026-05-07 23:45 | 53.85943 | -7.95501 | 36009 ft | 490 kts | 273° |
| 2026-05-07 23:45 | 53.86305 | -8.01288 | 35993 ft | 497 kts | 273° |
| 2026-05-07 23:45 | 53.87022 | -8.12941 | 35969 ft | 497 kts | 273° |
| 2026-05-07 23:46 | 53.87729 | -8.24617 | 35965 ft | 497 kts | 273° |
| 2026-05-07 23:46 | 53.88423 | -8.36261 | 35978 ft | 497 kts | 273° |
| 2026-05-07 23:47 | 53.89107 | -8.47911 | 35995 ft | 496 kts | 273° |
| 2026-05-07 23:47 | 53.89776 | -8.59529 | 35987 ft | 496 kts | 273° |
| 2026-05-07 23:48 | 53.90437 | -8.71192 | 36004 ft | 496 kts | 273° |
| 2026-05-07 23:48 | 53.91124 | -8.82916 | 35999 ft | 495 kts | 270° |
| 2026-05-07 23:49 | 53.91543 | -8.94525 | 35996 ft | 496 kts | 271° |
| 2026-05-07 23:49 | 53.91988 | -9.06186 | 36000 ft | 495 kts | 271° |
| 2026-05-07 23:50 | 53.92428 | -9.17875 | 36003 ft | 495 kts | 271° |
| 2026-05-07 23:50 | 53.92856 | -9.29523 | 36007 ft | 495 kts | 271° |
| 2026-05-07 23:51 | 53.93274 | -9.41186 | 36006 ft | 495 kts | 271° |
| 2026-05-07 23:51 | 53.93680 | -9.52872 | 36011 ft | 495 kts | 271° |
| 2026-05-07 23:52 | 53.94073 | -9.64498 | 36012 ft | 495 kts | 271° |
| 2026-05-07 23:52 | 53.94458 | -9.76202 | 36019 ft | 495 kts | 270° |
| 2026-05-07 23:53 | 53.94833 | -9.87902 | 36013 ft | 495 kts | 270° |
| 2026-05-07 23:53 | 53.95191 | -9.99555 | 36012 ft | 495 kts | 270° |
| 2026-05-07 23:54 | 53.95540 | -10.11206 | 36010 ft | 495 kts | 270° |
| 2026-05-07 23:54 | 53.95878 | -10.22871 | 36014 ft | 495 kts | 270° |
| 2026-05-07 23:55 | 53.96204 | -10.34526 | 36014 ft | 495 kts | 270° |
| 2026-05-07 23:55 | 53.96522 | -10.46256 | 35991 ft | 495 kts | 270° |
| 2026-05-07 23:56 | 53.96825 | -10.57924 | 35997 ft | 494 kts | 270° |
| 2026-05-07 23:56 | 53.97119 | -10.69615 | 36012 ft | 495 kts | 270° |
| 2026-05-07 23:57 | 53.97399 | -10.81261 | 36018 ft | 495 kts | 270° |
| 2026-05-07 23:57 | 53.97669 | -10.92950 | 36021 ft | 495 kts | 270° |
| 2026-05-07 23:58 | 53.97928 | -11.04630 | 36018 ft | 495 kts | 269° |
| 2026-05-07 23:58 | 53.98135 | -11.14407 | 36020 ft | 495 kts | 269° |
| 2026-05-07 23:59 | 53.98411 | -11.27996 | 36023 ft | 495 kts | 269° |
| 2026-05-07 23:59 | 53.98600 | -11.37764 | 36026 ft | 495 kts | 269° |
| 2026-05-08 00:00 | 53.98815 | -11.49429 | 36029 ft | 495 kts | 269° |
| 2026-05-08 00:00 | 53.99018 | -11.61117 | 36030 ft | 495 kts | 269° |
| 2026-05-08 00:01 | 53.99212 | -11.72840 | 36034 ft | 495 kts | 269° |
| 2026-05-08 00:01 | 53.99393 | -11.84522 | 36034 ft | 495 kts | 269° |
| 2026-05-08 00:02 | 53.99564 | -11.96273 | 36039 ft | 495 kts | 269° |
| 2026-05-08 00:02 | 53.99722 | -12.07927 | 36038 ft | 495 kts | 269° |
| 2026-05-08 00:03 | 53.99870 | -12.19672 | 36037 ft | 495 kts | 269° |
| 2026-05-08 00:03 | 54.00005 | -12.31327 | 36036 ft | 495 kts | 269° |
| 2026-05-08 00:04 | 54.00130 | -12.43034 | 36036 ft | 495 kts | 269° |
| 2026-05-08 00:04 | 54.00244 | -12.54825 | 36042 ft | 495 kts | 269° |
| 2026-05-08 00:05 | 54.00346 | -12.66535 | 36042 ft | 495 kts | 268° |
| 2026-05-08 00:05 | 54.00436 | -12.78243 | 36042 ft | 495 kts | 268° |
| 2026-05-08 00:06 | 54.00516 | -12.89957 | 36048 ft | 496 kts | 268° |
| 2026-05-08 00:06 | 54.00582 | -13.01692 | 36047 ft | 496 kts | 268° |
| 2026-05-08 00:07 | 54.00639 | -13.13359 | 36046 ft | 496 kts | 268° |
| 2026-05-08 00:07 | 54.00684 | -13.25164 | 36052 ft | 496 kts | 268° |
| 2026-05-08 00:08 | 54.00718 | -13.36846 | 36056 ft | 497 kts | 268° |
| 2026-05-08 00:08 | 54.00740 | -13.48650 | 36059 ft | 497 kts | 268° |
| 2026-05-08 00:09 | 54.00751 | -13.60409 | 36060 ft | 498 kts | 268° |
| 2026-05-08 00:09 | 54.00749 | -13.72163 | 36059 ft | 498 kts | 268° |
| 2026-05-08 00:10 | 54.00738 | -13.83965 | 36060 ft | 498 kts | 268° |
| 2026-05-08 00:10 | 54.00713 | -13.95780 | 36056 ft | 499 kts | 268° |
| 2026-05-08 00:11 | 54.00678 | -14.07565 | 36069 ft | 499 kts | 268° |
| 2026-05-08 00:11 | 54.00630 | -14.19347 | 36059 ft | 500 kts | 268° |
| 2026-05-08 00:12 | 54.00573 | -14.31170 | 36073 ft | 500 kts | 267° |
| 2026-05-08 00:12 | 54.00501 | -14.43027 | 36066 ft | 500 kts | 267° |
| 2026-05-08 00:13 | 54.00420 | -14.54891 | 36071 ft | 500 kts | 267° |
| 2026-05-08 00:13 | 54.00326 | -14.66661 | 36072 ft | 501 kts | 267° |
| 2026-05-08 00:14 | 54.00221 | -14.78542 | 36072 ft | 501 kts | 267° |
| 2026-05-08 00:14 | 54.00103 | -14.90419 | 36073 ft | 501 kts | 267° |
| 2026-05-08 00:15 | 54.00005 | -15.02246 | 36075 ft | 503 kts | 270° |
| 2026-05-08 00:15 | 54.00237 | -15.14105 | 36079 ft | 503 kts | 270° |
| 2026-05-08 00:16 | 54.00435 | -15.25995 | 36080 ft | 503 kts | 270° |
| 2026-05-08 00:16 | 54.00617 | -15.37928 | 36080 ft | 504 kts | 269° |
| 2026-05-08 00:17 | 54.00785 | -15.49846 | 36083 ft | 504 kts | 269° |
| 2026-05-08 00:18 | 54.01211 | -15.84523 | 36089 ft | 505 kts | 269° |
| 2026-05-08 00:19 | 54.01333 | -15.96407 | 36091 ft | 506 kts | 269° |
| 2026-05-08 00:19 | 54.01445 | -16.08401 | 36091 ft | 506 kts | 269° |
| 2026-05-08 00:20 | 54.01545 | -16.20402 | 36096 ft | 506 kts | 269° |
| 2026-05-08 00:20 | 54.01634 | -16.32411 | 36096 ft | 507 kts | 269° |
| 2026-05-08 00:21 | 54.01709 | -16.44386 | 36097 ft | 507 kts | 269° |
| 2026-05-08 00:21 | 54.01773 | -16.56315 | 36098 ft | 507 kts | 269° |
| 2026-05-08 00:22 | 54.01825 | -16.68345 | 36102 ft | 508 kts | 269° |
| 2026-05-08 00:22 | 54.01866 | -16.80380 | 36104 ft | 508 kts | 269° |
| 2026-05-08 00:23 | 54.01894 | -16.92413 | 36105 ft | 509 kts | 269° |
| 2026-05-08 00:23 | 54.01911 | -17.04448 | 36105 ft | 509 kts | 269° |
| 2026-05-08 00:24 | 54.01914 | -17.16569 | 36106 ft | 509 kts | 269° |
| 2026-05-08 00:24 | 54.01907 | -17.28561 | 36108 ft | 510 kts | 269° |
| 2026-05-08 00:25 | 54.01887 | -17.40684 | 36110 ft | 510 kts | 269° |
| 2026-05-08 00:25 | 54.01855 | -17.52733 | 36113 ft | 510 kts | 269° |
| 2026-05-08 00:26 | 54.01810 | -17.64788 | 36118 ft | 511 kts | 269° |
| 2026-05-08 00:26 | 54.01755 | -17.76833 | 36120 ft | 511 kts | 269° |
| 2026-05-08 00:27 | 54.01686 | -17.88992 | 36121 ft | 511 kts | 269° |
| 2026-05-08 00:27 | 54.01606 | -18.01075 | 36123 ft | 512 kts | 269° |
| 2026-05-08 00:28 | 54.01513 | -18.13167 | 36120 ft | 512 kts | 269° |
| 2026-05-08 00:28 | 54.01409 | -18.25236 | 36123 ft | 512 kts | 269° |
| 2026-05-08 00:29 | 54.01291 | -18.37376 | 36129 ft | 513 kts | 269° |
| 2026-05-08 00:29 | 54.01162 | -18.49515 | 36131 ft | 513 kts | 269° |
| 2026-05-08 00:30 | 54.01019 | -18.61699 | 36132 ft | 513 kts | 268° |
| 2026-05-08 00:30 | 54.00866 | -18.73783 | 36133 ft | 513 kts | 268° |
| 2026-05-08 00:31 | 54.00699 | -18.85916 | 36134 ft | 513 kts | 268° |
| 2026-05-08 00:31 | 54.00520 | -18.98113 | 36136 ft | 514 kts | 268° |
| 2026-05-08 00:32 | 54.00330 | -19.10218 | 36148 ft | 514 kts | 268° |
| 2026-05-08 00:32 | 54.00126 | -19.22395 | 36150 ft | 514 kts | 268° |
| 2026-05-08 00:33 | 53.99911 | -19.34508 | 36152 ft | 514 kts | 268° |
| 2026-05-08 00:33 | 53.99684 | -19.46668 | 36148 ft | 514 kts | 268° |
| 2026-05-08 00:34 | 53.99442 | -19.58854 | 36154 ft | 514 kts | 268° |
| 2026-05-08 00:34 | 53.99190 | -19.70990 | 36148 ft | 515 kts | 268° |
| 2026-05-08 00:35 | 53.98925 | -19.83158 | 36156 ft | 515 kts | 268° |
| 2026-05-08 00:35 | 53.98648 | -19.95329 | 36158 ft | 515 kts | 268° |
| 2026-05-08 00:36 | 53.98358 | -20.07514 | 36161 ft | 515 kts | 268° |
| 2026-05-08 00:36 | 53.98055 | -20.19687 | 36163 ft | 516 kts | 268° |